Time;durP1;ratioP1;P1;durP2;ratioP2;P2;SDS_P1;SDS_P2;PMS_P1;PMS_P2;Temp;Humidity;BMP_temperature;BMP_pressure;BME280_temperature;BME280_humidity;BME280_pressure;Samples;Min_cycle;Max_cycle;Signal;HPM_P1;HPM_P2
2022/05/27 00:00:18;;;;;;;12.98;7.95;;;;;;;21.13;95.64;98610.91;5041763;28;20176;-60
2022/05/27 00:02:45;;;;;;;9.93;7.10;;;;;;;20.97;96.95;98601.22;5020400;28;20821;-60
2022/05/27 00:05:11;;;;;;;12.70;7.82;;;;;;;21.06;96.70;98609.94;5020405;28;20194;-60
2022/05/27 00:07:37;;;;;;;9.30;8.15;;;;;;;21.14;95.94;98602.03;5027047;28;20217;-60
2022/05/27 00:10:04;;;;;;;9.95;8.05;;;;;;;21.10;95.56;98593.63;5035042;28;20710;-60
2022/05/27 00:12:29;;;;;;;9.77;7.53;;;;;;;21.23;93.98;98601.03;5044230;28;21008;-60
2022/05/27 00:14:54;;;;;;;9.43;6.68;;;;;;;21.21;93.13;98600.41;5034104;28;20191;-61
2022/05/27 00:17:20;;;;;;;8.65;7.57;;;;;;;21.25;93.41;98601.69;5036546;28;20247;-60
2022/05/27 00:19:46;;;;;;;10.63;7.90;;;;;;;21.21;93.61;98589.88;5034067;28;20603;-60
2022/05/27 00:22:11;;;;;;;9.70;7.63;;;;;;;21.17;93.12;98593.81;5041237;28;20732;-62
2022/05/27 00:24:37;;;;;;;9.23;7.22;;;;;;;21.11;93.80;98590.03;5018423;28;20205;-61
2022/05/27 00:27:05;;;;;;;10.20;7.25;;;;;;;21.05;93.59;98587.25;5028125;28;20239;-61
2022/05/27 00:29:31;;;;;;;9.60;7.47;;;;;;;21.01;94.91;98584.13;5032126;28;20185;-62
2022/05/27 00:31:56;;;;;;;10.25;7.28;;;;;;;20.97;95.06;98585.44;5032445;28;20231;-61
2022/05/27 00:34:21;;;;;;;9.18;7.55;;;;;;;20.88;95.82;98585.56;5044080;28;20174;-61
2022/05/27 00:36:47;;;;;;;12.35;7.60;;;;;;;20.90;95.65;98573.09;5037832;28;20216;-60
2022/05/27 00:39:12;;;;;;;9.32;8.02;;;;;;;20.91;95.71;98580.84;5043563;28;20564;-60
2022/05/27 00:41:41;;;;;;;9.35;7.43;;;;;;;20.89;95.67;98580.19;5036904;28;20189;-61
2022/05/27 00:44:06;;;;;;;11.63;8.00;;;;;;;20.88;95.90;98575.06;5031111;28;20765;-60
2022/05/27 00:46:34;;;;;;;11.40;8.48;;;;;;;20.91;95.70;98585.25;5019058;28;20182;-60
2022/05/27 00:49:09;;;;;;;16.27;8.07;;;;;;;20.93;94.75;98576.22;5021883;28;20212;-61
2022/05/27 00:51:49;;;;;;;11.05;8.43;;;;;;;20.90;94.96;98581.81;5039356;28;20561;-61
2022/05/27 00:54:19;;;;;;;13.18;8.43;;;;;;;21.06;93.12;98584.47;5047791;28;20172;-61
2022/05/27 00:56:50;;;;;;;13.07;8.10;;;;;;;21.25;90.69;98584.09;5035237;28;20236;-60
2022/05/27 00:59:28;;;;;;;9.88;7.40;;;;;;;21.43;89.43;98587.34;5033779;28;20190;-60
2022/05/27 01:01:54;;;;;;;13.10;7.80;;;;;;;21.47;88.92;98575.50;5036539;28;20177;-60
2022/05/27 01:04:21;;;;;;;11.57;7.43;;;;;;;21.44;88.21;98578.44;5036129;28;20198;-60
2022/05/27 01:06:47;;;;;;;12.68;7.15;;;;;;;21.42;87.69;98579.59;5018360;28;20620;-60
2022/05/27 01:09:14;;;;;;;10.00;7.85;;;;;;;21.35;88.68;98579.47;5019480;28;20239;-60
2022/05/27 01:11:57;;;;;;;8.00;6.18;;;;;;;21.26;89.00;98584.88;5030689;28;20189;-60
2022/05/27 01:14:29;;;;;;;9.18;7.50;;;;;;;21.18;89.09;98574.38;5042269;28;20177;-60
2022/05/27 01:17:32;;;;;;;10.57;7.65;;;;;;;21.16;90.23;98579.00;5042916;28;20173;-60
2022/05/27 01:20:18;;;;;;;8.85;7.32;;;;;;;21.01;91.48;98580.66;5040720;28;20287;-59
2022/05/27 01:23:12;;;;;;;9.52;7.28;;;;;;;20.99;91.51;98574.75;5042281;28;20184;-61
2022/05/27 01:25:53;;;;;;;9.70;7.97;;;;;;;20.93;91.92;98585.94;5032884;28;20671;-60
2022/05/27 01:28:23;;;;;;;10.93;8.05;;;;;;;20.82;92.33;98560.78;5017885;28;20413;-61
2022/05/27 01:30:57;;;;;;;13.05;8.27;;;;;;;20.81;93.29;98574.06;5019786;28;20170;-60
2022/05/27 01:33:41;;;;;;;10.30;8.20;;;;;;;20.78;93.33;98591.00;5030412;28;20264;-60
2022/05/27 01:36:20;;;;;;;10.18;8.20;;;;;;;20.87;92.56;98586.56;5042703;28;20225;-60
2022/05/27 01:39:23;;;;;;;13.18;8.70;;;;;;;21.00;90.79;98585.13;5040786;28;20234;-60
2022/05/27 01:42:10;;;;;;;9.82;8.02;;;;;;;21.20;89.05;98582.94;5034029;28;20262;-60
2022/05/27 01:44:45;;;;;;;10.77;7.75;;;;;;;21.30;88.43;98583.56;5036898;28;20202;-60
2022/05/27 01:47:19;;;;;;;10.35;7.60;;;;;;;21.40;87.40;98586.84;5025680;28;20189;-60
2022/05/27 01:49:49;;;;;;;10.13;7.82;;;;;;;21.44;87.05;98588.97;5018077;28;20173;-60
2022/05/27 01:52:26;;;;;;;12.88;8.00;;;;;;;21.49;86.70;98591.94;5021413;28;20186;-61
2022/05/27 01:54:55;;;;;;;11.82;7.60;;;;;;;21.56;85.67;98586.81;5035602;28;20192;-61
2022/05/27 01:57:41;;;;;;;10.38;8.15;;;;;;;21.60;85.13;98599.47;5042968;28;20242;-60
2022/05/27 02:00:10;;;;;;;16.52;9.32;;;;;;;21.64;86.47;98590.25;5041814;28;20192;-60
2022/05/27 02:02:43;;;;;;;10.93;9.07;;;;;;;21.71;89.06;98590.41;5039216;28;20259;-60
2022/05/27 02:05:14;;;;;;;13.23;8.70;;;;;;;21.70;88.01;98599.31;5036946;28;20571;-60
2022/05/27 02:07:47;;;;;;;14.82;9.35;;;;;;;21.69;89.58;98593.19;5031359;28;20209;-59
2022/05/27 02:10:26;;;;;;;13.38;9.60;;;;;;;21.68;90.54;98603.94;5036930;28;20886;-60
2022/05/27 02:13:07;;;;;;;14.55;8.55;;;;;;;21.64;91.14;98600.78;5038910;28;20200;-60
2022/05/27 02:15:42;;;;;;;11.88;8.38;;;;;;;21.31;92.73;98583.41;5031652;28;20677;-61
2022/05/27 02:18:22;;;;;;;12.38;8.88;;;;;;;21.47;92.64;98599.19;5034830;28;20725;-60
2022/05/27 02:20:55;;;;;;;10.85;8.27;;;;;;;21.53;92.34;98608.22;5038022;28;20181;-60
2022/05/27 02:23:26;;;;;;;9.10;8.13;;;;;;;21.36;91.47;98603.97;5031785;28;20216;-60
2022/05/27 02:25:55;;;;;;;12.10;7.45;;;;;;;21.22;88.73;98607.28;5032609;28;20169;-60
2022/05/27 02:28:36;;;;;;;11.98;7.68;;;;;;;21.26;87.62;98603.31;5039676;28;20192;-59
2022/05/27 02:31:21;;;;;;;11.40;8.73;;;;;;;21.09;90.10;98605.16;5036917;28;20181;-60
2022/05/27 02:36:40;;;;;;;11.25;8.20;;;;;;;21.13;89.16;98603.00;5039276;28;20180;-61
2022/05/27 02:39:07;;;;;;;16.00;8.27;;;;;;;20.97;90.34;98600.41;5033403;28;20264;-60
2022/05/27 02:42:01;;;;;;;12.57;8.13;;;;;;;20.82;91.56;98604.66;5045202;28;20227;-61
2022/05/27 02:45:17;;;;;;;11.75;7.90;;;;;;;20.89;90.86;98605.66;5039509;28;20201;-61
2022/05/27 02:47:51;;;;;;;13.20;8.82;;;;;;;21.06;89.07;98604.66;5035988;28;20279;-60
2022/05/27 02:50:47;;;;;;;10.13;8.23;;;;;;;21.07;88.60;98608.94;5035917;28;20215;-60
2022/05/27 02:53:35;;;;;;;9.52;8.48;;;;;;;21.08;88.21;98607.94;5036191;28;20251;-60
2022/05/27 02:56:21;;;;;;;13.50;9.50;;;;;;;20.84;89.87;98605.28;5041134;28;20176;-60
2022/05/27 02:58:48;;;;;;;14.80;9.18;;;;;;;20.69;91.15;98609.59;5035320;28;21008;-60
2022/05/27 03:01:13;;;;;;;10.43;8.52;;;;;;;20.67;91.09;98603.66;5042524;28;20188;-59
2022/05/27 03:03:39;;;;;;;13.23;8.82;;;;;;;20.54;91.58;98593.63;5040184;28;20190;-60
2022/05/27 03:06:25;;;;;;;19.20;9.23;;;;;;;20.58;91.29;98596.75;5044818;28;20211;-61
2022/05/27 03:09:22;;;;;;;13.48;9.10;;;;;;;20.34;93.79;98594.09;5034314;28;20176;-61
2022/05/27 03:12:24;;;;;;;13.15;8.68;;;;;;;20.13;92.51;98549.03;5022902;28;21238;-61
2022/05/27 03:15:02;;;;;;;13.00;9.48;;;;;;;20.35;94.17;98600.97;5016919;28;20196;-61
2022/05/27 03:17:45;;;;;;;10.73;8.70;;;;;;;20.47;92.90;98607.56;5029682;28;20272;-60
2022/05/27 03:20:23;;;;;;;14.73;9.35;;;;;;;20.46;92.55;98605.94;5037792;28;20654;-60
2022/05/27 03:23:18;;;;;;;13.32;8.32;;;;;;;20.45;93.32;98607.72;5037711;28;20204;-61
2022/05/27 03:25:49;;;;;;;14.02;9.13;;;;;;;20.56;91.86;98617.94;5041059;28;20282;-61
2022/05/27 03:28:27;;;;;;;12.68;8.88;;;;;;;20.57;91.31;98608.25;5041077;28;20188;-59
2022/05/27 03:30:55;;;;;;;13.27;9.20;;;;;;;20.54;90.81;98613.81;5044501;28;20184;-60
2022/05/27 03:33:35;;;;;;;12.15;8.82;;;;;;;20.52;91.18;98618.44;5039896;28;20181;-60
2022/05/27 03:36:20;;;;;;;11.45;8.48;;;;;;;20.50;90.71;98626.47;5040684;28;20176;-60
2022/05/27 03:38:52;;;;;;;11.57;7.78;;;;;;;20.46;91.34;98613.81;5041190;28;20263;-60
2022/05/27 03:41:29;;;;;;;13.55;8.60;;;;;;;20.36;91.85;98616.59;5039309;28;20180;-60
2022/05/27 03:43:55;;;;;;;11.45;8.40;;;;;;;20.41;91.55;98613.47;5040899;28;20841;-60
2022/05/27 03:46:34;;;;;;;15.98;9.00;;;;;;;20.52;91.41;98616.59;5043660;28;20709;-60
2022/05/27 03:49:00;;;;;;;10.95;7.55;;;;;;;20.54;91.01;98619.91;5035755;28;20174;-60
2022/05/27 03:51:34;;;;;;;11.05;8.55;;;;;;;20.64;90.13;98614.50;5035846;28;20298;-61
2022/05/27 03:54:05;;;;;;;11.65;7.85;;;;;;;20.70;89.62;98616.47;5040624;28;20177;-60
2022/05/27 03:56:39;;;;;;;11.68;7.85;;;;;;;20.70;88.79;98612.03;5039873;28;20169;-59
2022/05/27 03:59:10;;;;;;;10.05;7.80;;;;;;;20.64;87.79;98614.50;5039163;28;20209;-60
2022/05/27 04:01:38;;;;;;;11.18;7.97;;;;;;;20.59;88.70;98611.53;5044824;28;20268;-60
2022/05/27 04:04:05;;;;;;;14.32;7.43;;;;;;;20.60;89.04;98621.06;5038743;28;20208;-61
2022/05/27 04:06:32;;;;;;;9.25;7.32;;;;;;;20.72;89.51;98614.50;5034555;28;20181;-61
2022/05/27 04:08:57;;;;;;;9.85;7.80;;;;;;;20.78;88.25;98616.47;5042293;28;20184;-60
2022/05/27 04:11:24;;;;;;;9.23;7.55;;;;;;;20.76;88.95;98607.94;5039503;28;20178;-60
2022/05/27 04:13:50;;;;;;;10.75;8.25;;;;;;;20.82;89.22;98610.75;5035872;28;20228;-59
2022/05/27 04:16:16;;;;;;;11.65;8.07;;;;;;;20.97;88.59;98609.13;5019098;28;20887;-60
2022/05/27 04:18:41;;;;;;;9.00;7.53;;;;;;;21.11;87.41;98605.00;5019643;28;20185;-60
2022/05/27 04:21:07;;;;;;;9.45;7.82;;;;;;;21.04;87.57;98606.66;5035654;28;20583;-60
2022/05/27 04:23:32;;;;;;;15.23;8.90;;;;;;;21.06;87.21;98602.03;5041521;28;20590;-60
2022/05/27 04:25:58;;;;;;;9.52;7.38;;;;;;;20.96;87.21;98594.31;5034403;28;20626;-60
2022/05/27 04:28:23;;;;;;;12.25;7.50;;;;;;;21.07;87.10;98606.31;5030521;28;20694;-60
2022/05/27 04:30:49;;;;;;;15.98;7.68;;;;;;;21.02;87.16;98603.34;5036037;28;20255;-60
2022/05/27 04:33:14;;;;;;;8.82;7.90;;;;;;;21.08;87.98;98600.88;5036618;28;20181;-60
2022/05/27 04:35:41;;;;;;;9.88;7.28;;;;;;;21.18;87.25;98592.81;5027735;28;20188;-60
2022/05/27 04:38:07;;;;;;;9.25;7.53;;;;;;;21.28;86.33;98598.72;5018889;28;20653;-60
2022/05/27 04:40:32;;;;;;;13.93;7.90;;;;;;;21.31;85.44;98591.31;5023561;28;20219;-60
2022/05/27 04:42:58;;;;;;;12.95;8.05;;;;;;;21.51;83.45;98600.47;5047312;28;20215;-60
2022/05/27 04:45:24;;;;;;;12.05;7.25;;;;;;;21.75;81.96;98602.25;5035475;28;20186;-60
2022/05/27 04:47:51;;;;;;;12.57;7.40;;;;;;;21.87;81.51;98600.88;5029548;28;20189;-60
2022/05/27 04:50:18;;;;;;;10.45;7.38;;;;;;;21.97;81.21;98594.41;5041708;28;20255;-60
2022/05/27 04:52:45;;;;;;;11.20;7.72;;;;;;;22.09;81.54;98595.66;5040811;28;20629;-60
2022/05/27 04:55:13;;;;;;;10.02;7.18;;;;;;;22.09;81.18;98593.03;5044426;28;20208;-60
2022/05/27 04:57:47;;;;;;;9.77;8.15;;;;;;;22.16;80.96;98594.00;5037692;28;20219;-60
2022/05/27 05:00:18;;;;;;;12.38;7.70;;;;;;;22.21;80.10;98591.66;5039217;28;20735;-61
2022/05/27 05:02:44;;;;;;;11.65;7.45;;;;;;;22.24;79.54;98582.56;5045411;28;20177;-60
2022/05/27 05:05:12;;;;;;;7.13;6.43;;;;;;;22.36;78.71;98589.09;5035069;28;20205;-60
2022/05/27 05:07:40;;;;;;;10.82;7.10;;;;;;;22.39;79.83;98588.75;5044933;28;20623;-60
2022/05/27 05:10:08;;;;;;;12.13;6.60;;;;;;;22.42;79.08;98593.66;5037127;28;20189;-60
2022/05/27 05:12:33;;;;;;;9.55;7.03;;;;;;;22.51;78.42;98597.94;5033245;28;20236;-60
2022/05/27 05:14:59;;;;;;;7.30;5.80;;;;;;;22.62;77.73;98589.63;5041122;28;20997;-60
2022/05/27 05:17:24;;;;;;;9.82;6.95;;;;;;;22.74;78.93;98601.41;5035034;28;20559;-60
2022/05/27 05:19:53;;;;;;;9.20;6.47;;;;;;;22.75;77.80;98610.94;5037904;28;20188;-60
2022/05/27 05:22:20;;;;;;;10.50;7.43;;;;;;;22.87;79.58;98604.25;5039864;28;20252;-61
2022/05/27 05:24:45;;;;;;;12.77;7.47;;;;;;;23.00;78.61;98609.75;5043311;28;20212;-60
2022/05/27 05:27:11;;;;;;;10.25;7.28;;;;;;;23.06;76.28;98617.78;5036341;28;20181;-61
2022/05/27 05:29:36;;;;;;;7.90;7.03;;;;;;;23.17;75.28;98613.91;5030475;28;20181;-60
2022/05/27 05:32:04;;;;;;;9.45;6.55;;;;;;;23.18;74.92;98620.84;5032622;28;20236;-60
2022/05/27 05:34:29;;;;;;;7.13;6.43;;;;;;;23.32;73.66;98615.59;5037745;28;20686;-60
2022/05/27 05:36:56;;;;;;;12.40;6.95;;;;;;;23.31;73.86;98613.94;5032034;28;20185;-60
2022/05/27 05:39:23;;;;;;;10.70;6.78;;;;;;;23.42;72.68;98615.34;5018697;28;20181;-61
2022/05/27 05:42:00;;;;;;;10.90;6.65;;;;;;;23.40;72.72;98610.25;5018033;28;20197;-60
2022/05/27 05:44:26;;;;;;;9.18;6.38;;;;;;;23.45;73.04;98607.88;5032061;28;20306;-60
2022/05/27 05:46:53;;;;;;;8.90;6.22;;;;;;;23.46;73.49;98611.31;5035372;28;20265;-60
2022/05/27 05:49:19;;;;;;;14.13;6.22;;;;;;;23.56;73.40;98614.53;5038110;28;20185;-60
2022/05/27 05:51:44;;;;;;;15.57;6.70;;;;;;;23.58;71.77;98610.72;5041202;28;20200;-60
2022/05/27 05:54:10;;;;;;;8.70;6.43;;;;;;;23.72;70.34;98614.34;5039475;28;20558;-60
2022/05/27 05:56:35;;;;;;;10.48;6.35;;;;;;;23.85;69.75;98621.44;5032010;28;20201;-60
2022/05/27 05:59:01;;;;;;;10.40;6.00;;;;;;;23.86;69.27;98623.09;5037867;28;20180;-60
2022/05/27 06:01:27;;;;;;;7.50;5.80;;;;;;;23.90;69.71;98614.84;5036704;28;20176;-60
2022/05/27 06:03:52;;;;;;;12.10;6.40;;;;;;;23.85;70.13;98610.88;5038694;28;20196;-60
2022/05/27 06:06:18;;;;;;;9.13;6.07;;;;;;;23.96;70.28;98619.38;5040281;28;20181;-60
2022/05/27 06:08:44;;;;;;;13.85;7.05;;;;;;;23.81;69.60;98609.59;5033466;28;20608;-60
2022/05/27 06:11:09;;;;;;;13.88;6.65;;;;;;;24.00;68.24;98624.13;5036258;28;20190;-60
2022/05/27 06:13:40;;;;;;;8.20;6.03;;;;;;;24.10;67.35;98614.88;5042050;28;20169;-60
2022/05/27 06:16:06;;;;;;;6.47;5.78;;;;;;;24.03;67.81;98614.00;5038907;28;20234;-60
2022/05/27 06:18:32;;;;;;;8.63;5.57;;;;;;;24.10;67.74;98617.53;5030866;28;20675;-61
2022/05/27 06:20:58;;;;;;;7.45;5.63;;;;;;;24.12;68.55;98612.06;5023350;28;20210;-60
2022/05/27 06:23:27;;;;;;;8.15;5.97;;;;;;;24.23;67.64;98618.72;5017228;28;20805;-60
2022/05/27 06:26:05;;;;;;;9.38;6.57;;;;;;;24.30;67.57;98615.94;5020805;28;20300;-60
2022/05/27 06:36:45;;;;;;;8.95;5.75;;;;;;;24.69;65.59;98619.06;5036364;28;20243;-60
2022/05/27 06:39:11;;;;;;;13.30;6.22;;;;;;;24.73;65.83;98614.22;5036343;28;20216;-60
2022/05/27 06:41:37;;;;;;;9.02;5.72;;;;;;;24.85;65.95;98607.41;5037608;28;20184;-61
2022/05/27 06:44:04;;;;;;;8.73;6.35;;;;;;;24.83;65.14;98618.16;5036782;28;20208;-60
2022/05/27 06:46:31;;;;;;;12.75;6.13;;;;;;;24.90;65.07;98611.09;5038404;28;20188;-61
2022/05/27 06:48:56;;;;;;;10.90;6.57;;;;;;;24.98;64.55;98610.97;5042855;28;20211;-60
2022/05/27 06:51:22;;;;;;;11.98;7.25;;;;;;;25.07;65.83;98609.81;5036754;28;20659;-61
2022/05/27 06:53:47;;;;;;;10.73;6.65;;;;;;;25.09;66.53;98609.63;5039143;28;20183;-60
2022/05/27 06:56:14;;;;;;;8.48;6.53;;;;;;;25.29;66.09;98608.81;5031250;28;20181;-60
2022/05/27 06:58:43;;;;;;;11.80;7.95;;;;;;;25.29;66.96;98607.97;5042888;28;20217;-60
2022/05/27 07:01:09;;;;;;;17.38;8.70;;;;;;;25.24;67.15;98597.97;5046384;28;20204;-61
2022/05/27 07:03:37;;;;;;;12.45;7.55;;;;;;;25.39;66.87;98609.31;5037400;28;20208;-61
2022/05/27 07:06:08;;;;;;;14.43;7.15;;;;;;;25.54;66.74;98596.75;5036886;28;20803;-60
2022/05/27 07:08:34;;;;;;;14.18;7.07;;;;;;;25.72;66.44;98593.59;5040200;28;20666;-60
2022/05/27 07:11:00;;;;;;;11.57;7.53;;;;;;;25.86;65.49;98596.13;5033914;28;20230;-60
2022/05/27 07:13:26;;;;;;;9.98;8.27;;;;;;;26.02;65.49;98598.44;5036617;28;20217;-62
2022/05/27 07:15:51;;;;;;;13.10;7.60;;;;;;;26.16;66.09;98586.88;5040002;28;20201;-61
2022/05/27 07:18:16;;;;;;;14.13;8.20;;;;;;;26.29;66.42;98589.59;5043269;28;20536;-60
2022/05/27 07:20:43;;;;;;;11.50;7.65;;;;;;;26.37;66.07;98581.44;5032966;28;20185;-60
2022/05/27 07:23:08;;;;;;;13.15;8.20;;;;;;;26.46;65.92;98580.22;5041726;28;20303;-59
2022/05/27 07:25:34;;;;;;;14.32;8.55;;;;;;;26.58;65.02;98580.50;5035423;28;20230;-60
2022/05/27 07:28:07;;;;;;;8.70;7.18;;;;;;;26.67;63.54;98585.44;5037470;28;20227;-60
2022/05/27 07:30:36;;;;;;;14.52;7.85;;;;;;;26.73;63.43;98589.09;5036374;28;20177;-60
2022/05/27 07:33:01;;;;;;;11.35;7.47;;;;;;;26.78;62.93;98582.16;5025821;28;20618;-60
2022/05/27 07:35:27;;;;;;;11.95;7.22;;;;;;;26.87;61.56;98575.63;5035768;28;20181;-60
2022/05/27 07:37:52;;;;;;;12.10;7.13;;;;;;;26.94;61.21;98575.63;5032325;28;20185;-60
2022/05/27 07:40:18;;;;;;;9.90;6.40;;;;;;;26.99;60.21;98584.63;5044384;28;20177;-60
2022/05/27 07:42:44;;;;;;;11.43;6.88;;;;;;;27.00;60.42;98578.28;5032565;28;20200;-60
2022/05/27 07:45:11;;;;;;;8.60;6.75;;;;;;;27.08;59.87;98577.25;5019608;28;20190;-60
2022/05/27 07:47:37;;;;;;;11.73;6.78;;;;;;;27.14;59.51;98577.28;5016306;28;20264;-60
2022/05/27 07:50:03;;;;;;;8.48;6.70;;;;;;;27.17;58.96;98576.88;5019084;28;20669;-60
2022/05/27 07:52:29;;;;;;;9.65;6.47;;;;;;;27.21;59.01;98577.28;5036399;28;20189;-60
2022/05/27 07:54:55;;;;;;;9.90;6.75;;;;;;;27.30;57.81;98576.84;5038860;28;20196;-61
2022/05/27 07:57:25;;;;;;;10.35;6.07;;;;;;;27.34;57.07;98571.97;5039399;28;20601;-60
2022/05/27 08:00:04;;;;;;;9.63;5.75;;;;;;;27.43;56.47;98581.34;5035629;28;20185;-61
2022/05/27 08:02:30;;;;;;;10.73;6.13;;;;;;;27.44;56.74;98575.00;5031867;28;20240;-62
2022/05/27 08:04:55;;;;;;;9.35;6.07;;;;;;;27.50;56.04;98574.16;5031889;28;20223;-62
2022/05/27 08:07:21;;;;;;;8.07;5.75;;;;;;;27.52;56.39;98577.44;5014959;28;20182;-61
2022/05/27 08:09:46;;;;;;;9.85;6.22;;;;;;;27.52;56.19;98564.16;5016992;28;20203;-61
2022/05/27 08:12:12;;;;;;;12.30;6.22;;;;;;;27.61;55.68;98579.69;5033035;28;20732;-61
2022/05/27 08:14:38;;;;;;;8.82;6.03;;;;;;;27.64;55.08;98573.94;5044067;28;20213;-61
2022/05/27 08:17:03;;;;;;;12.10;5.60;;;;;;;27.69;55.18;98574.13;5040337;28;20655;-61
2022/05/27 08:19:29;;;;;;;9.45;5.60;;;;;;;27.71;54.45;98574.75;5045388;28;20181;-61
2022/05/27 08:21:54;;;;;;;9.63;5.30;;;;;;;27.77;51.93;98563.31;5045999;28;20203;-61
2022/05/27 08:24:20;;;;;;;8.18;5.18;;;;;;;27.85;49.29;98571.03;5040416;28;20216;-61
2022/05/27 08:26:47;;;;;;;10.82;4.15;;;;;;;27.87;48.18;98563.66;5036069;28;20788;-61
2022/05/27 08:29:12;;;;;;;5.15;4.53;;;;;;;27.90;46.90;98563.25;5038837;28;20235;-60
2022/05/27 08:31:39;;;;;;;8.98;3.58;;;;;;;27.99;44.33;98564.63;5040763;28;20828;-60
2022/05/27 08:39:37;;;;;;;3.80;2.70;;;;;;;28.07;40.32;98556.44;5043529;28;20193;-61
2022/05/27 08:42:23;;;;;;;4.05;2.30;;;;;;;28.15;40.35;98558.81;5038593;28;20586;-60
2022/05/27 08:44:55;;;;;;;3.85;2.72;;;;;;;28.24;39.83;98554.91;5035680;28;20573;-60
2022/05/27 08:47:30;;;;;;;5.47;3.65;;;;;;;28.28;41.28;98550.75;5036461;28;20177;-60
2022/05/27 08:50:16;;;;;;;5.80;3.70;;;;;;;28.38;41.66;98555.66;5038017;28;20831;-60
2022/05/27 08:52:48;;;;;;;11.15;3.80;;;;;;;28.18;41.75;98518.50;5040410;28;20185;-60
2022/05/27 09:01:28;;;;;;;5.65;3.60;;;;;;;28.56;40.63;98545.91;5045105;28;20188;-60
2022/05/27 09:04:17;;;;;;;3.97;3.40;;;;;;;28.64;40.83;98548.34;5042972;28;20201;-61
2022/05/27 09:06:48;;;;;;;11.50;3.45;;;;;;;28.70;40.78;98544.81;5036062;28;20185;-60
2022/05/27 09:09:22;;;;;;;6.22;3.60;;;;;;;28.78;41.18;98544.53;5042084;28;20188;-60
2022/05/27 09:11:59;;;;;;;5.47;3.50;;;;;;;28.88;40.70;98538.72;5038314;28;20196;-61
2022/05/27 09:14:31;;;;;;;6.72;3.42;;;;;;;28.91;39.94;98533.75;5039044;28;20916;-61
2022/05/27 09:17:00;;;;;;;5.22;3.28;;;;;;;29.01;39.71;98538.63;5039551;28;20567;-61
2022/05/27 09:19:58;;;;;;;7.38;3.70;;;;;;;29.06;39.56;98536.94;5037411;28;20182;-60
2022/05/27 09:22:52;;;;;;;5.35;3.30;;;;;;;29.12;38.75;98533.41;5035658;28;20647;-60
2022/05/27 09:25:36;;;;;;;8.82;3.42;;;;;;;29.18;39.94;98535.19;5036873;28;20235;-60
2022/05/27 09:28:17;;;;;;;6.57;3.38;;;;;;;29.27;39.58;98522.41;5041322;28;20192;-60
2022/05/27 09:30:43;;;;;;;6.88;3.22;;;;;;;29.28;39.30;98522.19;5036236;28;20185;-60
2022/05/27 09:33:16;;;;;;;6.55;3.30;;;;;;;29.39;38.79;98517.97;5037881;28;20176;-60
2022/05/27 09:35:46;;;;;;;3.85;3.10;;;;;;;29.43;39.06;98519.97;5042909;28;20267;-60
2022/05/27 09:38:21;;;;;;;6.25;3.17;;;;;;;29.46;38.86;98511.53;5044335;28;20540;-60
2022/05/27 09:40:54;;;;;;;6.20;3.55;;;;;;;29.49;38.23;98505.75;5043574;28;20178;-60
2022/05/27 09:43:39;;;;;;;5.20;3.15;;;;;;;29.60;37.55;98507.69;5032624;28;20225;-60
2022/05/27 09:46:18;;;;;;;8.20;3.08;;;;;;;29.68;36.93;98494.03;5034411;28;20180;-60
2022/05/27 09:48:44;;;;;;;7.47;3.20;;;;;;;29.75;36.43;98500.13;5041203;28;20177;-60
2022/05/27 09:51:12;;;;;;;6.65;3.15;;;;;;;29.78;37.08;98502.34;5035777;28;20183;-60
2022/05/27 09:53:41;;;;;;;8.23;2.80;;;;;;;29.85;37.49;98483.59;5037632;28;20173;-60
2022/05/27 09:56:09;;;;;;;9.38;3.83;;;;;;;29.91;38.15;98483.47;5037675;28;20189;-60
2022/05/27 09:58:37;;;;;;;5.75;3.70;;;;;;;30.00;38.30;98479.47;5038162;28;20274;-60
2022/05/27 10:01:17;;;;;;;5.85;3.53;;;;;;;30.06;38.76;98478.56;5039830;28;20187;-60
2022/05/27 10:03:43;;;;;;;10.73;3.50;;;;;;;30.11;37.68;98469.91;5033153;28;20205;-60
2022/05/27 10:06:16;;;;;;;5.28;3.95;;;;;;;30.11;37.73;98465.38;5042061;28;20264;-60
2022/05/27 10:08:59;;;;;;;10.70;4.20;;;;;;;30.10;38.38;98455.75;5045854;28;20185;-60
2022/05/27 10:11:28;;;;;;;6.55;3.92;;;;;;;30.20;38.08;98456.00;5042911;28;20188;-60
2022/05/27 10:14:10;;;;;;;7.53;4.00;;;;;;;30.11;37.67;98449.38;5036496;28;20177;-61
2022/05/27 10:16:37;;;;;;;6.40;3.47;;;;;;;30.24;38.00;98449.16;5038423;28;20235;-61
2022/05/27 10:19:13;;;;;;;8.68;3.70;;;;;;;30.40;37.82;98447.69;5043082;28;20181;-61
2022/05/27 10:21:57;;;;;;;6.85;3.10;;;;;;;30.57;36.70;98448.66;5041520;28;20268;-60
2022/05/27 10:24:22;;;;;;;8.20;3.50;;;;;;;30.66;35.79;98437.41;5039827;28;20525;-61
2022/05/27 10:27:01;;;;;;;7.88;3.05;;;;;;;30.79;35.18;98439.06;5042262;28;20633;-61
2022/05/27 10:29:27;;;;;;;7.40;3.42;;;;;;;30.81;35.81;98440.44;5038299;28;20188;-60
2022/05/27 10:31:55;;;;;;;5.43;3.10;;;;;;;30.84;35.68;98439.97;5040772;28;20185;-60
2022/05/27 10:34:39;;;;;;;4.15;2.97;;;;;;;30.92;35.76;98442.31;5036304;28;20948;-61
2022/05/27 10:37:21;;;;;;;14.02;3.78;;;;;;;31.05;34.42;98427.88;5037713;28;21118;-61
2022/05/27 10:40:16;;;;;;;5.50;3.55;;;;;;;31.19;35.40;98432.75;5036448;28;20251;-60
2022/05/27 10:43:03;;;;;;;9.20;3.28;;;;;;;31.44;35.60;98435.97;5033219;28;20169;-61
2022/05/27 10:45:38;;;;;;;8.48;3.92;;;;;;;31.52;35.47;98427.56;5042894;28;20670;-60
2022/05/27 10:48:18;;;;;;;3.92;3.20;;;;;;;31.77;33.61;98425.41;5034589;28;20268;-60
2022/05/27 10:51:05;;;;;;;7.05;2.95;;;;;;;31.98;33.44;98422.06;5031942;28;20181;-60
2022/05/27 10:53:42;;;;;;;4.50;3.05;;;;;;;32.23;33.22;98417.13;5033645;28;20192;-60
2022/05/27 10:56:30;;;;;;;5.75;2.88;;;;;;;32.51;33.21;98416.28;5016004;28;20169;-63
2022/05/27 11:02:14;;;;;;;4.88;2.63;;;;;;;32.91;31.59;98417.75;5035984;28;20228;-62
2022/05/27 11:05:15;;;;;;;11.00;2.97;;;;;;;33.07;31.81;98410.72;5041051;28;20228;-62
2022/05/27 11:07:52;;;;;;;7.97;2.72;;;;;;;33.16;31.89;98415.41;5033369;28;20191;-63
2022/05/27 11:10:35;;;;;;;6.80;3.05;;;;;;;33.21;31.62;98415.47;5032910;28;20571;-62
2022/05/27 11:16:16;;;;;;;5.70;3.10;;;;;;;33.02;31.21;98416.00;5033970;28;20806;-62
2022/05/27 11:19:03;;;;;;;5.90;2.63;;;;;;;32.98;30.79;98412.22;5036723;28;20180;-62
2022/05/27 11:21:49;;;;;;;8.43;3.35;;;;;;;32.80;31.01;98410.59;5042093;28;20184;-62
2022/05/27 11:24:25;;;;;;;8.52;3.17;;;;;;;32.67;30.71;98410.94;5036639;28;20629;-62
2022/05/27 11:27:36;;;;;;;6.43;2.78;;;;;;;32.58;31.37;98417.75;5041458;28;20177;-63
2022/05/27 11:30:23;;;;;;;7.07;2.63;;;;;;;32.50;31.17;98415.47;5034302;28;20184;-62
2022/05/27 11:32:54;;;;;;;9.65;3.25;;;;;;;32.34;31.28;98415.50;5040196;28;20654;-62
2022/05/27 11:35:22;;;;;;;6.47;2.67;;;;;;;32.22;32.62;98412.84;5034880;28;20182;-63
2022/05/27 11:38:26;;;;;;;7.03;3.25;;;;;;;32.13;33.47;98406.25;5015216;28;20181;-63
2022/05/27 11:40:58;;;;;;;2.95;2.65;;;;;;;32.00;34.23;98401.19;4998666;28;20205;-62
2022/05/27 11:43:26;;;;;;;6.90;3.00;;;;;;;31.91;36.09;98397.31;5029926;28;20198;-61
2022/05/27 11:46:05;;;;;;;7.07;3.20;;;;;;;31.91;36.95;98391.97;5034614;28;20606;-60
2022/05/27 11:48:52;;;;;;;4.63;2.88;;;;;;;31.79;37.83;98379.69;5039243;28;20646;-61
2022/05/27 11:51:53;;;;;;;8.50;2.88;;;;;;;31.71;33.21;98388.06;5038026;28;20168;-60
2022/05/27 11:54:49;;;;;;;4.85;3.05;;;;;;;31.56;34.83;98372.53;5033987;28;20685;-60
2022/05/27 11:57:23;;;;;;;8.90;2.85;;;;;;;31.43;35.88;98370.13;5025476;28;20696;-60
2022/05/27 12:00:11;;;;;;;9.88;3.50;;;;;;;31.36;35.38;98358.75;5019423;28;20275;-60
2022/05/27 12:02:51;;;;;;;7.30;2.97;;;;;;;31.40;35.73;98364.44;5022497;28;20260;-62
2022/05/27 12:05:22;;;;;;;8.05;2.53;;;;;;;31.56;34.55;98364.53;5041348;28;20328;-62
2022/05/27 12:08:01;;;;;;;5.93;2.38;;;;;;;31.52;34.57;98357.19;5038371;28;20181;-61
2022/05/27 12:10:34;;;;;;;8.95;2.83;;;;;;;31.61;32.73;98358.44;5039025;28;20666;-61
2022/05/27 12:13:12;;;;;;;8.23;2.80;;;;;;;31.44;33.05;98357.56;5032050;28;20185;-61
2022/05/27 12:15:44;;;;;;;7.68;2.85;;;;;;;31.48;33.09;98356.84;5042815;28;20176;-61
2022/05/27 12:18:21;;;;;;;7.35;2.80;;;;;;;31.56;35.47;98351.13;5028768;28;20182;-60
2022/05/27 12:20:48;;;;;;;5.70;2.45;;;;;;;31.38;34.37;98321.91;5019109;28;20185;-61
2022/05/27 12:23:13;;;;;;;11.70;2.92;;;;;;;31.40;35.35;98341.19;5021111;28;20177;-61